Time;durP1;ratioP1;P1;durP2;ratioP2;P2;SDS_P1;SDS_P2;PMS_P1;PMS_P2;Temp;Humidity;BMP_temperature;BMP_pressure;BME280_temperature;BME280_humidity;BME280_pressure;Samples;Min_cycle;Max_cycle;Signal;HPM_P1;HPM_P2
2022/10/01 00:02:08;;;;;;;7.10;6.40;;;13.30;99.90;;;13.56;96.70;99912.75;5053120;28;20078;-65
2022/10/01 00:04:38;;;;;;;8.18;6.57;;;13.40;99.90;;;13.70;96.56;99924.69;5053079;28;20037;-64
2022/10/01 00:07:13;;;;;;;8.13;6.35;;;13.40;99.90;;;13.58;96.64;99921.53;5052932;28;20041;-64
2022/10/01 00:09:42;;;;;;;7.97;6.45;;;13.30;99.90;;;13.67;97.15;99915.03;5053256;28;20045;-64
2022/10/01 00:12:12;;;;;;;7.00;5.93;;;13.40;99.90;;;13.61;96.88;99906.41;5052883;28;20456;-65
2022/10/01 00:14:41;;;;;;;6.90;5.68;;;13.30;99.90;;;13.54;96.73;99913.69;5052924;28;20041;-63
2022/10/01 00:17:09;;;;;;;7.65;5.82;;;13.30;99.90;;;13.44;97.01;99922.88;5052824;28;20067;-64
2022/10/01 00:19:37;;;;;;;6.95;5.93;;;13.20;99.90;;;13.42;97.24;99912.28;5052693;28;20156;-64
2022/10/01 00:22:07;;;;;;;9.55;6.07;;;13.20;99.90;;;13.45;97.67;99866.19;5052884;28;20057;-66
2022/10/01 00:24:36;;;;;;;7.78;6.57;;;13.20;99.90;;;13.43;97.69;99876.81;5052727;28;20719;-65
2022/10/01 00:27:04;;;;;;;8.65;6.22;;;13.20;99.90;;;13.44;97.94;99873.28;5052661;28;20041;-65
2022/10/01 00:29:33;;;;;;;9.23;6.38;;;13.20;99.90;;;13.23;97.88;99910.25;5052660;28;20146;-66
2022/10/01 00:32:01;;;;;;;6.47;5.80;;;13.10;99.90;;;13.36;98.27;99872.63;5052666;28;20060;-66
2022/10/01 00:34:30;;;;;;;10.93;6.13;;;13.10;99.90;;;13.42;98.38;99834.38;5052638;28;20049;-65
2022/10/01 00:36:58;;;;;;;7.03;5.85;;;13.10;99.90;;;13.43;98.49;99830.81;5052556;28;20041;-66
2022/10/01 00:39:28;;;;;;;8.07;6.18;;;13.20;99.90;;;12.94;98.77;99738.56;5052567;28;20036;-65
2022/10/01 00:41:56;;;;;;;7.30;5.75;;;13.20;99.90;;;13.44;98.78;99822.81;5052704;28;20037;-65
2022/10/01 00:44:33;;;;;;;6.47;5.72;;;13.20;99.90;;;13.35;99.05;99841.69;5052568;28;20076;-65
2022/10/01 00:47:10;;;;;;;6.88;5.93;;;13.10;99.90;;;13.39;99.49;99823.88;5052480;28;20049;-65
2022/10/01 00:49:41;;;;;;;8.52;5.90;;;13.10;99.90;;;13.41;99.35;99814.91;5052369;28;20038;-66
2022/10/01 00:52:15;;;;;;;11.05;6.60;;;13.10;99.90;;;13.21;99.69;99821.78;5052540;28;20079;-65
2022/10/01 00:54:49;;;;;;;8.48;6.18;;;13.10;99.90;;;13.36;100.00;99803.59;5052692;28;20055;-65
2022/10/01 00:57:21;;;;;;;8.82;6.75;;;13.10;99.90;;;13.26;100.00;99804.78;5052563;28;20060;-65
2022/10/01 00:59:52;;;;;;;6.95;6.35;;;13.00;99.90;;;13.15;100.00;99801.63;5052696;28;20049;-66
2022/10/01 01:02:20;;;;;;;7.88;6.30;;;13.00;99.90;;;13.30;100.00;99814.41;5052423;28;20055;-66
2022/10/01 01:04:49;;;;;;;6.75;5.80;;;13.00;99.90;;;13.37;100.00;99818.63;5052362;28;20099;-65
2022/10/01 01:07:21;;;;;;;9.52;6.05;;;13.10;99.90;;;13.30;100.00;99811.75;5052255;28;20088;-65
2022/10/01 01:09:53;;;;;;;6.40;5.78;;;13.10;99.90;;;13.34;100.00;99794.78;5051141;28;20059;-66
2022/10/01 01:12:46;;;;;;;7.07;5.40;;;13.10;99.90;;;13.41;100.00;99785.69;5052285;28;20123;-66
2022/10/01 01:15:19;;;;;;;7.47;6.70;;;13.10;99.90;;;13.46;100.00;99788.22;5052287;28;20124;-65
2022/10/01 01:17:56;;;;;;;7.32;6.57;;;13.20;99.90;;;13.40;100.00;99788.41;5052345;28;20055;-65
2022/10/01 01:20:54;;;;;;;9.13;6.32;;;13.10;99.90;;;13.49;100.00;99809.38;5067566;28;20578;-66
2022/10/01 01:23:55;;;;;;;9.30;6.35;;;13.20;99.90;;;13.47;100.00;99774.88;5052351;28;20067;-65
2022/10/01 01:26:33;;;;;;;7.28;6.57;;;13.20;99.90;;;13.56;100.00;99769.25;5049546;28;20107;-67
2022/10/01 01:29:08;;;;;;;10.85;6.38;;;13.30;99.90;;;13.67;100.00;99775.97;5050799;28;20540;-66
2022/10/01 01:31:40;;;;;;;10.77;6.70;;;13.30;99.90;;;13.67;99.95;99771.53;5052433;28;20068;-66
2022/10/01 01:34:16;;;;;;;8.77;7.13;;;13.40;99.90;;;13.59;100.00;99761.19;5055975;28;20050;-66
2022/10/01 01:36:53;;;;;;;8.88;7.03;;;13.30;99.90;;;13.72;100.00;99782.00;5071329;28;20088;-66
2022/10/01 01:39:23;;;;;;;8.23;6.85;;;13.40;99.90;;;13.69;100.00;99760.84;5054629;28;20528;-65
2022/10/01 01:41:59;;;;;;;8.65;6.93;;;13.40;99.90;;;13.73;100.00;99773.97;5055756;28;20040;-66
2022/10/01 01:44:34;;;;;;;8.48;6.80;;;13.40;99.90;;;12.08;100.00;99473.53;5055597;28;20064;-65
2022/10/01 01:47:04;;;;;;;9.70;6.75;;;13.40;99.90;;;13.61;100.00;99761.13;5055720;28;20045;-66
2022/10/01 01:49:32;;;;;;;8.20;7.37;;;13.40;99.90;;;13.69;100.00;99771.47;5054431;28;20547;-66
2022/10/01 01:52:07;;;;;;;7.53;6.75;;;13.40;99.90;;;13.71;100.00;99774.94;5055584;28;20048;-66
2022/10/01 01:54:37;;;;;;;8.40;7.70;;;13.50;99.90;;;13.73;100.00;99766.00;5055601;28;20053;-66
2022/10/01 01:57:07;;;;;;;8.48;7.50;;;13.50;99.90;;;13.86;100.00;99758.50;5055458;28;20608;-66
2022/10/01 01:59:37;;;;;;;10.45;8.02;;;13.60;99.90;;;13.84;100.00;99779.78;5055464;28;20040;-65
2022/10/01 02:02:07;;;;;;;9.00;7.80;;;13.60;99.90;;;13.91;100.00;99749.44;5055393;28;20041;-64
2022/10/01 02:04:42;;;;;;;10.93;7.15;;;13.60;99.90;;;13.70;100.00;99738.69;5054124;28;20048;-64
2022/10/01 02:07:49;;;;;;;8.70;7.80;;;13.60;99.90;;;14.01;100.00;99768.56;5055351;28;20483;-64
2022/10/01 02:10:33;;;;;;;9.27;8.27;;;13.70;99.90;;;13.93;100.00;99747.59;5037128;28;20095;-65
2022/10/01 02:13:23;;;;;;;8.18;7.38;;;13.70;99.90;;;14.11;100.00;99767.31;5055183;28;20040;-64
2022/10/01 02:16:03;;;;;;;8.77;6.50;;;13.80;99.90;;;13.89;100.00;99732.66;5055133;28;20560;-64
2022/10/01 02:18:42;;;;;;;7.75;7.03;;;13.80;99.90;;;14.13;100.00;99757.50;5053943;28;20053;-64
2022/10/01 02:21:17;;;;;;;11.10;7.50;;;13.80;99.90;;;14.14;100.00;99761.88;5055120;28;20550;-64
2022/10/01 02:23:56;;;;;;;8.38;6.43;;;13.80;99.90;;;14.16;100.00;99765.34;5055001;28;20051;-65
2022/10/01 02:26:28;;;;;;;7.95;6.97;;;13.80;99.90;;;14.18;100.00;99753.75;5054981;28;20075;-66
2022/10/01 02:29:03;;;;;;;7.60;6.18;;;13.90;99.90;;;14.17;100.00;99762.63;5054840;28;20068;-64
2022/10/01 02:31:34;;;;;;;6.75;6.20;;;13.90;99.90;;;14.13;100.00;99755.69;5054962;28;20047;-65
2022/10/01 02:34:05;;;;;;;7.60;6.15;;;13.90;99.90;;;14.32;100.00;99766.56;5054769;28;20045;-65
2022/10/01 02:36:41;;;;;;;7.38;5.70;;;14.00;99.90;;;14.29;100.00;99769.31;5054859;28;20114;-65
2022/10/01 02:39:11;;;;;;;9.02;5.88;;;14.00;99.90;;;14.39;100.00;99774.25;5055187;28;20052;-65
2022/10/01 02:41:41;;;;;;;6.68;5.88;;;14.00;99.90;;;14.35;100.00;99762.00;5054858;28;20079;-65
2022/10/01 02:44:15;;;;;;;7.18;5.63;;;14.10;99.90;;;14.41;100.00;99776.84;5054559;28;20383;-65
2022/10/01 02:46:53;;;;;;;5.80;5.20;;;14.10;99.90;;;14.39;100.00;99773.38;5054500;28;20057;-64
2022/10/01 02:49:21;;;;;;;6.53;5.75;;;14.10;99.90;;;14.44;100.00;99761.63;5054674;28;20478;-65
2022/10/01 02:52:01;;;;;;;6.30;5.70;;;14.20;99.90;;;14.56;100.00;99773.59;5070015;28;20067;-65
2022/10/01 02:54:37;;;;;;;9.40;5.90;;;14.20;99.90;;;14.63;99.84;99751.16;5054464;28;20048;-65
2022/10/01 02:57:22;;;;;;;7.55;5.65;;;14.30;99.90;;;14.55;99.60;99782.53;5054387;28;20060;-64
2022/10/01 02:59:52;;;;;;;6.30;5.70;;;14.30;99.90;;;14.38;99.78;99735.25;5054331;28;20071;-65
2022/10/01 03:02:22;;;;;;;7.63;5.88;;;14.20;99.90;;;14.54;99.90;99762.16;5054620;28;20406;-65
2022/10/01 03:04:50;;;;;;;7.28;5.85;;;14.20;99.90;;;14.55;99.80;99763.91;5054272;28;20596;-64
2022/10/01 03:07:18;;;;;;;6.05;5.40;;;14.20;99.90;;;14.58;100.00;99757.56;5054066;28;20091;-65
2022/10/01 03:09:48;;;;;;;7.03;5.68;;;14.30;99.90;;;14.70;99.71;99765.09;5053999;28;20045;-65
2022/10/01 03:12:17;;;;;;;7.68;5.65;;;14.30;99.90;;;14.74;99.45;99748.06;5054248;28;20095;-65
2022/10/01 03:14:46;;;;;;;6.82;5.03;;;14.40;99.90;;;14.51;99.77;99740.13;5052741;28;20099;-65
2022/10/01 03:17:15;;;;;;;5.70;4.97;;;14.40;99.90;;;14.75;99.80;99766.63;5053933;28;20045;-66
2022/10/01 03:19:45;;;;;;;5.13;4.57;;;14.40;99.90;;;14.81;99.68;99769.06;5053836;28;20045;-65
2022/10/01 03:22:17;;;;;;;5.57;4.83;;;14.40;99.90;;;14.82;99.23;99762.84;5053858;28;20051;-65
2022/10/01 03:24:46;;;;;;;6.55;5.72;;;14.50;99.90;;;14.84;99.38;99771.63;5053906;28;20052;-65
2022/10/01 03:27:14;;;;;;;5.32;4.55;;;14.50;99.90;;;14.92;99.35;99772.19;5053690;28;20041;-66
2022/10/01 03:29:42;;;;;;;5.53;5.03;;;14.60;99.90;;;14.92;99.38;99780.19;5053711;28;20398;-65
2022/10/01 03:32:11;;;;;;;6.47;4.55;;;14.60;99.90;;;14.91;99.09;99762.47;5053653;28;20052;-66
2022/10/01 03:34:39;;;;;;;5.25;4.82;;;14.60;99.90;;;15.03;98.94;99777.94;5053598;28;20045;-66
2022/10/01 03:37:10;;;;;;;5.68;5.07;;;14.70;99.90;;;15.03;98.83;99782.41;5053591;28;20037;-65
2022/10/01 03:39:38;;;;;;;6.05;4.38;;;14.70;99.90;;;15.09;98.93;99782.16;5053643;28;20059;-65
2022/10/01 03:42:07;;;;;;;4.53;4.13;;;14.70;99.90;;;15.07;98.78;99774.25;5053568;28;20045;-66
2022/10/01 03:44:35;;;;;;;5.57;4.47;;;14.70;99.90;;;14.96;99.08;99765.78;5053364;28;20071;-66
2022/10/01 03:47:03;;;;;;;8.10;4.35;;;14.70;99.90;;;15.19;99.23;99791.53;5051885;28;20057;-66
2022/10/01 03:49:32;;;;;;;5.35;4.57;;;14.80;99.90;;;15.14;98.80;99799.69;5053658;28;20055;-66
2022/10/01 03:52:01;;;;;;;5.40;4.85;;;14.80;99.90;;;15.24;99.10;99808.19;5053343;28;20433;-66
2022/10/01 03:54:31;;;;;;;5.07;4.57;;;14.90;99.90;;;15.25;98.99;99804.59;5052747;28;20051;-66
2022/10/01 03:56:59;;;;;;;5.07;4.57;;;14.80;99.90;;;15.27;99.01;99800.91;5053522;28;20051;-66
2022/10/01 03:59:28;;;;;;;4.40;4.00;;;14.90;99.90;;;15.36;98.72;99813.91;5053017;28;20041;-67
2022/10/01 04:01:56;;;;;;;6.15;4.28;;;15.00;99.90;;;15.36;98.48;99808.56;5053189;28;20045;-67
2022/10/01 04:04:27;;;;;;;6.15;4.05;;;15.00;99.90;;;15.52;98.25;99815.97;5053562;28;20052;-66
2022/10/01 04:06:55;;;;;;;5.32;3.63;;;15.10;99.90;;;15.39;97.79;99807.53;5053270;28;20080;-67
2022/10/01 04:09:24;;;;;;;4.50;4.10;;;15.10;99.90;;;15.36;97.85;99799.69;5068326;28;20402;-66
2022/10/01 04:11:54;;;;;;;4.68;4.18;;;15.10;99.90;;;15.51;97.87;99812.41;5053290;28;20169;-66
2022/10/01 04:14:22;;;;;;;6.50;4.07;;;15.20;99.90;;;15.54;97.80;99820.31;5052954;28;20394;-66
2022/10/01 04:16:51;;;;;;;5.88;4.20;;;15.20;99.90;;;15.54;97.68;99822.97;5053092;28;20641;-66
2022/10/01 04:19:20;;;;;;;8.43;4.00;;;15.20;99.90;;;15.60;97.64;99829.84;5052985;28;20072;-67
2022/10/01 04:21:48;;;;;;;6.25;4.80;;;15.20;99.90;;;15.47;97.37;99809.94;5068260;28;20041;-67
2022/10/01 04:24:16;;;;;;;9.43;4.45;;;15.20;99.90;;;15.68;97.14;99833.06;5051578;28;20505;-67
2022/10/01 04:26:44;;;;;;;6.93;3.92;;;15.30;99.90;;;15.69;97.19;99843.66;5052624;28;20763;-66
2022/10/01 04:29:14;;;;;;;5.78;4.00;;;15.30;99.90;;;15.75;97.27;99838.06;5052647;28;20045;-67
2022/10/01 04:31:42;;;;;;;5.90;4.53;;;15.30;99.90;;;15.88;96.80;99849.06;5052762;28;20053;-67
2022/10/01 04:34:11;;;;;;;7.57;4.03;;;15.40;99.90;;;15.84;96.81;99863.47;5052654;28;20051;-67
2022/10/01 04:36:40;;;;;;;7.07;4.25;;;15.40;99.90;;;15.85;96.91;99850.06;5052965;28;20041;-66
2022/10/01 04:39:08;;;;;;;7.70;4.28;;;15.50;99.90;;;15.89;96.71;99866.81;5051220;28;20053;-67
2022/10/01 04:41:37;;;;;;;10.00;4.38;;;15.50;99.90;;;15.88;96.94;99865.06;5052582;28;20539;-66
2022/10/01 04:44:09;;;;;;;12.00;4.78;;;15.50;99.90;;;15.89;97.11;99866.81;5052564;28;20041;-67
2022/10/01 04:46:38;;;;;;;12.05;5.03;;;15.50;99.90;;;15.95;96.83;99869.22;5052315;28;20055;-67
2022/10/01 04:49:07;;;;;;;8.70;4.23;;;15.60;99.90;;;16.02;96.69;99876.03;5052474;28;20041;-67
2022/10/01 04:51:35;;;;;;;8.98;4.13;;;15.60;99.90;;;16.05;96.36;99868.75;5052376;28;20780;-67
2022/10/01 04:54:04;;;;;;;13.50;4.50;;;15.70;99.90;;;16.10;96.31;99881.91;5052718;28;20513;-67
2022/10/01 04:56:34;;;;;;;7.07;4.50;;;15.70;99.90;;;15.76;96.25;99815.78;5052596;28;20048;-66
2022/10/01 04:59:02;;;;;;;7.32;3.80;;;15.70;99.90;;;16.19;96.22;99889.50;5052582;28;20049;-66
2022/10/01 05:01:31;;;;;;;7.90;4.47;;;15.80;99.90;;;16.22;96.08;99898.25;5052372;28;20037;-67
2022/10/01 05:04:01;;;;;;;10.90;4.72;;;15.80;99.90;;;16.22;96.01;99897.38;5052418;28;20127;-67
2022/10/01 05:06:30;;;;;;;14.60;4.80;;;15.80;99.90;;;16.14;95.74;99867.50;5052598;28;20044;-67
2022/10/01 05:08:58;;;;;;;8.00;4.22;;;15.90;99.90;;;16.37;95.24;99891.41;5056307;28;20033;-66
2022/10/01 05:11:27;;;;;;;8.85;4.38;;;16.00;99.90;;;16.55;94.80;99916.47;5056339;28;20068;-66
2022/10/01 05:13:55;;;;;;;14.55;4.60;;;16.10;99.90;;;16.53;94.11;99913.81;5056654;28;20072;-68
2022/10/01 05:16:23;;;;;;;11.93;4.95;;;16.10;99.90;;;16.54;94.04;99923.59;5056206;28;20052;-67
2022/10/01 05:18:53;;;;;;;10.82;4.55;;;16.20;99.90;;;16.55;93.84;99927.13;5056168;28;20041;-67
2022/10/01 05:21:23;;;;;;;10.30;4.85;;;16.20;99.90;;;15.97;93.54;99833.53;5054896;28;20107;-67
2022/10/01 05:23:51;;;;;;;9.60;4.43;;;16.20;99.90;;;16.59;93.34;99934.91;5056181;28;20072;-67
2022/10/01 05:26:19;;;;;;;10.32;4.95;;;16.20;99.90;;;16.67;93.14;99935.47;5056185;28;20041;-66
2022/10/01 05:28:48;;;;;;;10.82;5.05;;;16.20;99.90;;;16.63;92.66;99943.66;5056071;28;20148;-66
2022/10/01 05:31:17;;;;;;;13.35;4.32;;;16.20;99.90;;;16.65;92.52;99941.78;5055839;28;20139;-67
2022/10/01 05:33:46;;;;;;;9.52;5.18;;;16.20;99.90;;;16.63;92.11;99946.34;5054842;28;20079;-66
2022/10/01 05:36:14;;;;;;;10.82;4.40;;;16.20;99.90;;;16.67;91.96;99945.25;5055829;28;20037;-66
2022/10/01 05:38:44;;;;;;;10.10;4.35;;;16.30;99.90;;;16.62;91.45;99934.81;5055982;28;20053;-66
2022/10/01 05:41:13;;;;;;;9.93;5.05;;;16.30;99.90;;;16.71;91.14;99942.41;5055855;28;20576;-66
2022/10/01 05:43:42;;;;;;;10.95;5.00;;;16.30;99.90;;;16.76;90.99;99955.56;5055740;28;20045;-67
2022/10/01 05:46:11;;;;;;;10.80;4.93;;;16.40;99.90;;;16.77;90.68;99950.16;5055431;28;20455;-66
2022/10/01 05:48:39;;;;;;;11.85;4.85;;;16.40;99.90;;;16.77;90.25;99950.16;5055547;28;20521;-66
2022/10/01 05:51:07;;;;;;;13.20;4.82;;;16.40;99.90;;;16.81;90.01;99951.75;5055543;28;20135;-66
2022/10/01 05:53:37;;;;;;;8.43;4.78;;;16.50;99.90;;;16.78;89.75;99951.03;5055646;28;20041;-66
2022/10/01 05:56:07;;;;;;;11.88;5.18;;;16.40;99.90;;;16.77;89.51;99963.50;5055528;28;20041;-66
2022/10/01 05:58:36;;;;;;;14.93;5.13;;;16.40;99.90;;;16.61;89.36;99949.06;5055491;28;20045;-66
2022/10/01 06:01:04;;;;;;;10.93;5.10;;;16.40;99.90;;;16.65;89.26;99972.03;5055316;28;20048;-66
2022/10/01 06:03:33;;;;;;;12.15;4.78;;;16.30;99.90;;;16.59;89.41;99972.31;5055441;28;20425;-66
2022/10/01 06:06:04;;;;;;;10.60;4.55;;;16.20;99.90;;;16.54;89.51;99985.00;5055221;28;20048;-66
2022/10/01 06:08:34;;;;;;;;;;;16.20;99.90;;;16.55;89.83;99986.72;5055771;28;20120;-66
2022/10/01 06:11:03;;;;;;;8.82;4.53;;;16.20;99.90;;;16.63;90.18;99984.59;5055014;28;19925;-66
2022/10/01 06:13:36;;;;;;;11.80;5.13;;;16.20;99.90;;;16.68;90.08;99981.72;5055265;28;20045;-66
2022/10/01 06:16:04;;;;;;;13.38;4.97;;;16.30;99.90;;;16.73;89.94;99985.06;5055355;28;20119;-66
2022/10/01 06:18:33;;;;;;;8.52;4.57;;;16.40;99.90;;;16.80;89.99;99975.88;5054574;28;20153;-66
2022/10/01 06:21:01;;;;;;;8.85;4.20;;;16.50;99.90;;;16.91;89.81;99995.81;5055106;28;20056;-66
2022/10/01 06:23:29;;;;;;;13.30;4.78;;;16.50;99.90;;;16.89;89.92;99973.66;5054879;28;20505;-66
2022/10/01 06:26:00;;;;;;;13.40;4.80;;;16.70;99.90;;;17.14;90.04;99993.00;5054854;28;20132;-66
2022/10/01 06:28:29;;;;;;;17.77;4.88;;;16.80;99.90;;;17.19;89.38;100000.78;5070370;28;20057;-66
2022/10/01 06:31:01;;;;;;;13.02;4.72;;;16.90;99.90;;;17.27;89.15;99995.09;5054613;28;20040;-66
2022/10/01 06:33:30;;;;;;;12.27;4.35;;;16.90;99.90;;;17.33;88.73;100002.81;5054657;28;20048;-66
2022/10/01 06:35:58;;;;;;;10.88;4.78;;;17.00;99.90;;;17.37;88.22;99999.06;5054513;28;20052;-66
2022/10/01 06:38:26;;;;;;;10.52;4.47;;;17.00;99.90;;;17.28;87.85;99975.44;5054734;28;20041;-66
2022/10/01 06:40:57;;;;;;;11.70;4.38;;;17.10;99.90;;;17.42;87.43;100007.78;5054789;28;20099;-66
2022/10/01 06:43:28;;;;;;;13.20;4.38;;;17.10;99.90;;;17.43;87.19;100015.72;5054784;28;20049;-65
2022/10/01 06:46:00;;;;;;;;;;;17.10;99.90;;;17.42;87.22;100018.47;5054791;28;20053;-65
2022/10/01 06:48:30;;;;;;;13.18;4.60;;;17.20;99.90;;;17.33;87.41;100008.16;5054356;28;20377;-66
2022/10/01 06:50:59;;;;;;;13.00;4.63;;;17.10;99.90;;;17.42;87.59;100015.78;5054319;28;20579;-66
2022/10/01 06:53:28;;;;;;;15.77;4.70;;;17.10;99.90;;;17.40;87.56;100010.50;5054592;28;20094;-66
2022/10/01 06:55:57;;;;;;;16.45;5.10;;;17.10;99.90;;;17.46;87.50;100014.72;5054377;28;20404;-65
2022/10/01 06:58:26;;;;;;;17.02;4.93;;;17.10;99.90;;;17.27;87.85;100020.00;5054231;28;20425;-66
2022/10/01 07:01:00;;;;;;;16.85;4.75;;;17.00;99.90;;;17.17;87.98;100010.66;5054044;28;20044;-65
2022/10/01 07:03:30;;;;;;;18.10;5.30;;;17.00;99.90;;;17.34;88.44;100024.16;5054257;28;20052;-66
2022/10/01 07:06:03;;;;;;;19.25;5.82;;;17.00;99.90;;;17.44;89.01;100022.78;5054001;28;20045;-65
2022/10/01 07:08:32;;;;;;;17.48;4.95;;;17.10;99.90;;;17.61;88.61;100030.97;5054366;28;20040;-66
2022/10/01 07:11:02;;;;;;;21.15;5.28;;;17.30;99.90;;;17.85;88.16;100034.25;5054102;28;20447;-65
2022/10/01 07:13:31;;;;;;;20.95;5.25;;;17.50;99.90;;;17.92;86.93;100035.72;5053885;28;20041;-66
2022/10/01 07:16:03;;;;;;;17.95;5.32;;;17.80;99.90;;;18.31;85.31;100044.47;5053939;28;20128;-66
2022/10/01 07:18:32;;;;;;;23.75;6.45;;;18.00;99.90;;;18.34;84.11;100049.69;5053979;28;20068;-65
2022/10/01 07:21:00;;;;;;;17.30;4.95;;;18.10;99.90;;;18.21;83.12;100053.94;5054078;28;20077;-64
2022/10/01 07:23:29;;;;;;;21.73;5.60;;;18.00;99.90;;;17.93;83.29;100054.38;5053892;28;20128;-65
2022/10/01 07:25:57;;;;;;;17.70;5.70;;;17.80;99.90;;;18.03;83.97;100057.47;5053649;28;20056;-66
2022/10/01 07:28:26;;;;;;;19.70;5.40;;;17.80;99.90;;;18.11;84.25;100049.09;5053918;28;20102;-66
2022/10/01 07:31:03;;;;;;;19.10;4.90;;;17.80;99.90;;;17.29;84.47;99945.97;5053183;28;20045;-65
2022/10/01 07:33:32;;;;;;;23.88;6.40;;;17.80;99.90;;;18.06;84.68;100065.34;5053896;28;20065;-67
2022/10/01 07:36:02;;;;;;;25.23;5.75;;;17.80;99.90;;;17.79;84.93;100070.19;5053587;28;20517;-66
2022/10/01 07:38:32;;;;;;;26.35;5.40;;;17.60;99.90;;;17.23;85.92;100029.09;5053551;28;20049;-62
2022/10/01 07:41:01;;;;;;;20.23;5.05;;;17.20;99.90;;;17.35;86.07;100075.81;5053646;28;20051;-64
2022/10/01 07:43:30;;;;;;;18.70;5.18;;;17.10;99.90;;;17.44;85.85;100086.09;5053480;28;20048;-66
2022/10/01 07:46:01;;;;;;;17.90;5.20;;;17.10;99.90;;;17.51;85.28;100084.91;5068710;28;20061;-63
2022/10/01 07:48:30;;;;;;;19.48;5.35;;;17.20;99.90;;;17.49;84.74;100094.81;5053502;28;20045;-62
2022/10/01 07:50:58;;;;;;;21.25;5.40;;;17.20;99.90;;;17.36;84.25;100086.47;5053097;28;20040;-62
2022/10/01 07:53:29;;;;;;;;;;;17.10;99.90;;;17.32;83.45;100083.97;5053954;28;20045;-63
2022/10/01 07:56:01;;;;;;;16.73;4.97;;;17.10;99.90;;;17.42;82.14;100093.31;5053416;28;19932;-65
2022/10/01 07:58:29;;;;;;;15.52;5.68;;;17.10;99.90;;;17.74;81.04;100107.00;5053203;28;20123;-65
2022/10/01 08:00:59;;;;;;;16.73;5.18;;;17.40;99.90;;;18.16;80.93;100117.50;5068516;28;20486;-65
2022/10/01 08:03:29;;;;;;;17.87;5.40;;;17.80;99.90;;;18.23;79.31;100118.97;5052968;28;20106;-66
2022/10/01 08:05:58;;;;;;;16.80;4.80;;;18.00;99.90;;;18.06;78.50;100092.13;5053300;28;20045;-65
2022/10/01 08:08:26;;;;;;;14.55;4.57;;;18.00;99.90;;;17.95;78.40;100137.25;5053162;28;20452;-64
2022/10/01 08:10:54;;;;;;;19.85;5.10;;;17.70;99.90;;;17.77;78.49;100133.59;5052910;28;20052;-66
2022/10/01 08:13:24;;;;;;;15.05;4.35;;;17.60;99.90;;;17.75;79.46;100134.63;5052980;28;20433;-66
2022/10/01 08:15:53;;;;;;;18.77;4.97;;;17.50;99.90;;;17.93;79.65;100133.78;5052954;28;20461;-63
2022/10/01 08:18:23;;;;;;;20.05;5.05;;;17.50;99.90;;;17.94;78.84;100135.53;5051584;28;20045;-64
2022/10/01 08:20:53;;;;;;;18.97;5.33;;;17.60;99.90;;;17.75;79.37;100121.25;5052933;28;20410;-63
2022/10/01 08:23:22;;;;;;;17.80;4.78;;;17.60;99.90;;;17.68;78.53;100142.06;5052866;28;20041;-64
2022/10/01 08:25:50;;;;;;;18.13;5.40;;;17.40;99.90;;;17.60;79.20;100146.88;5052739;28;20040;-66
2022/10/01 08:28:18;;;;;;;16.55;4.60;;;17.30;99.90;;;17.72;79.96;100158.84;5052617;28;20465;-67
2022/10/01 08:30:47;;;;;;;17.77;4.68;;;17.40;99.90;;;17.75;80.23;100161.41;5052579;28;20099;-66
2022/10/01 08:33:15;;;;;;;22.17;4.85;;;17.50;99.90;;;17.64;80.33;100179.69;5052565;28;20045;-66
2022/10/01 08:35:43;;;;;;;18.60;5.18;;;17.40;99.90;;;17.61;80.39;100175.38;5052541;28;20033;-66
2022/10/01 08:38:14;;;;;;;19.13;5.82;;;17.30;99.90;;;17.60;80.65;100178.09;5052512;28;20548;-64
2022/10/01 08:40:46;;;;;;;13.15;4.70;;;17.30;99.90;;;17.80;80.97;100164.72;5052500;28;20107;-64
2022/10/01 08:43:32;;;;;;;18.30;5.75;;;17.50;99.90;;;17.64;79.24;100116.38;5052503;28;20045;-64
2022/10/01 08:46:05;;;;;;;20.10;5.85;;;17.70;99.90;;;17.92;79.39;100177.53;5052374;28;20068;-64
2022/10/01 08:48:53;;;;;;;23.25;6.00;;;17.70;99.90;;;17.94;78.74;100183.69;5052577;28;20045;-64
2022/10/01 08:51:29;;;;;;;;;;;17.60;99.90;;;17.97;78.23;100181.75;5052751;28;20086;-65
2022/10/01 08:54:09;;;;;;;25.23;5.95;;;17.70;99.90;;;18.08;78.20;100191.94;5052749;28;20290;-64
2022/10/01 08:56:44;;;;;;;18.08;4.97;;;17.80;99.90;;;18.24;77.69;100203.69;5052521;28;20475;-64
2022/10/01 08:59:32;;;;;;;22.77;6.05;;;18.00;99.90;;;18.26;77.36;100203.63;5052487;28;20469;-64
2022/10/01 09:02:00;;;;;;;18.80;5.20;;;18.00;99.90;;;18.24;77.16;100198.34;5052066;28;20494;-64
2022/10/01 09:04:29;;;;;;;21.65;5.82;;;18.10;99.90;;;18.42;76.80;100215.38;5052342;28;20107;-64
2022/10/01 09:07:10;;;;;;;21.67;5.38;;;18.10;99.90;;;18.40;76.88;100223.47;5052359;28;20057;-65
2022/10/01 09:09:45;;;;;;;;;;;18.10;99.90;;;18.38;76.34;100203.94;5052816;28;20041;-65
2022/10/01 09:12:27;;;;;;;18.33;5.47;;;18.20;99.90;;;18.91;77.42;100231.72;5052249;28;20263;-66
2022/10/01 09:15:16;;;;;;;18.65;5.05;;;18.50;99.90;;;19.12;74.20;100248.59;5052403;28;20055;-65
2022/10/01 09:18:01;;;;;;;19.63;5.50;;;18.80;99.90;;;18.58;71.68;100211.06;5052273;28;20214;-65
2022/10/01 09:20:36;;;;;;;16.27;5.10;;;18.60;99.90;;;18.66;72.38;100243.72;5052298;28;20040;-65
2022/10/01 09:23:18;;;;;;;20.90;6.07;;;18.40;99.90;;;18.55;73.32;100251.38;5052460;28;20045;-65
2022/10/01 09:25:50;;;;;;;19.25;5.47;;;18.40;99.90;;;18.36;74.32;100226.34;5052203;28;20045;-64
2022/10/01 09:28:22;;;;;;;19.85;5.30;;;18.20;99.90;;;18.37;75.26;100250.38;5052309;28;20056;-64
2022/10/01 09:30:56;;;;;;;23.73;5.22;;;18.10;99.90;;;18.12;74.47;100145.34;5052173;28;20033;-64
2022/10/01 09:33:31;;;;;;;19.30;6.03;;;18.40;99.90;;;18.86;74.70;100233.78;5051917;28;20041;-64
2022/10/01 09:36:12;;;;;;;19.50;6.03;;;18.70;99.90;;;19.33;73.17;100273.50;5052151;28;20123;-64
2022/10/01 09:38:43;;;;;;;19.17;5.00;;;19.00;99.90;;;18.99;71.50;100257.31;5052492;28;20041;-64
2022/10/01 09:41:13;;;;;;;;;;;18.90;99.90;;;19.03;71.76;100275.81;5052500;28;20498;-64
2022/10/01 09:43:43;;;;;;;17.95;5.22;;;18.80;99.90;;;18.98;71.65;100279.69;5051928;28;20370;-65
2022/10/01 09:46:16;;;;;;;21.08;5.35;;;18.70;99.90;;;18.35;71.01;100177.28;5051850;28;20061;-64
2022/10/01 09:48:56;;;;;;;19.05;5.10;;;18.70;99.90;;;19.23;70.96;100293.63;5052100;28;20056;-66
2022/10/01 09:51:32;;;;;;;17.20;5.45;;;19.00;99.90;;;19.04;70.65;100263.31;5052010;28;20044;-65
2022/10/01 09:54:15;;;;;;;16.52;5.13;;;19.00;99.90;;;19.39;69.94;100308.06;5054524;28;20120;-64
2022/10/01 09:56:53;;;;;;;16.70;4.55;;;19.10;99.90;;;19.15;68.98;100301.19;5055477;28;20064;-65
2022/10/01 09:59:28;;;;;;;17.58;5.10;;;19.00;99.90;;;19.15;69.63;100312.78;5055484;28;20552;-65
2022/10/01 10:01:59;;;;;;;16.73;5.07;;;18.90;99.90;;;18.87;69.82;100291.78;5055490;28;20132;-65
2022/10/01 10:04:28;;;;;;;15.68;4.75;;;18.70;99.90;;;19.24;69.63;100317.69;5055231;28;20053;-65
2022/10/01 10:07:01;;;;;;;24.40;5.40;;;18.90;99.90;;;19.11;68.78;100278.13;5055475;28;20406;-64
2022/10/01 10:09:33;;;;;;;17.13;5.18;;;19.00;99.90;;;19.34;68.84;100299.38;5055320;28;20049;-64
2022/10/01 10:12:07;;;;;;;20.17;5.32;;;19.20;99.90;;;19.57;68.56;100332.16;5055589;28;20041;-65
2022/10/01 10:14:39;;;;;;;20.67;4.82;;;19.30;99.90;;;19.64;68.51;100341.66;5055272;28;20082;-65
2022/10/01 10:17:15;;;;;;;18.85;5.30;;;19.40;99.90;;;19.54;67.59;100339.50;5055136;28;20162;-65
2022/10/01 10:19:51;;;;;;;22.73;4.97;;;19.40;99.90;;;19.83;66.94;100341.59;5055165;28;20482;-65
2022/10/01 10:22:23;;;;;;;15.25;4.82;;;19.60;99.90;;;19.43;65.86;100313.22;5055072;28;20059;-65
2022/10/01 10:24:53;;;;;;;14.80;4.50;;;19.50;99.90;;;19.30;65.65;100343.38;5055032;28;20561;-65
2022/10/01 10:27:26;;;;;;;19.63;5.50;;;19.20;99.90;;;19.12;67.46;100363.00;5055156;28;20083;-64
2022/10/01 10:30:05;;;;;;;18.85;5.20;;;18.90;99.90;;;18.93;68.64;100352.25;5053874;28;20407;-65
2022/10/01 10:32:33;;;;;;;21.73;5.72;;;18.70;99.90;;;18.64;69.50;100315.25;5054788;28;20081;-65